createdAt,value
2019-02-21T00:00:59.959Z,6.93
2019-02-21T00:03:29.293Z,6.80
2019-02-21T00:05:58.650Z,7.73
2019-02-21T00:08:28.018Z,7.30
2019-02-21T00:10:57.392Z,6.70
2019-02-21T00:13:26.718Z,7.57
2019-02-21T00:15:56.057Z,7.10
2019-02-21T00:18:25.410Z,6.80
2019-02-21T00:20:54.753Z,6.53
2019-02-21T00:23:24.141Z,6.80
2019-02-21T00:25:55.763Z,6.93
2019-02-21T00:28:24.601Z,6.63
2019-02-21T00:30:53.990Z,6.90
2019-02-21T00:33:25.427Z,6.03
2019-02-21T00:35:54.790Z,5.93
2019-02-21T00:38:24.127Z,5.93
2019-02-21T00:40:53.482Z,5.57
2019-02-21T00:43:22.866Z,6.60
2019-02-21T00:45:52.223Z,5.53
2019-02-21T00:48:21.567Z,5.53
2019-02-21T00:50:50.929Z,6.33
2019-02-21T00:53:20.254Z,5.60
2019-02-21T00:55:49.606Z,5.33
2019-02-21T00:58:18.946Z,5.50
2019-02-21T01:00:48.308Z,5.23
2019-02-21T01:03:17.675Z,5.30
2019-02-21T01:05:47.077Z,6.70
2019-02-21T01:08:16.477Z,5.77
2019-02-21T01:10:45.838Z,5.40
2019-02-21T01:13:15.201Z,5.93
2019-02-21T01:15:44.538Z,6.13
2019-02-21T01:18:13.882Z,6.53
2019-02-21T01:20:43.434Z,5.70
2019-02-21T01:23:12.763Z,6.60
2019-02-21T01:25:42.122Z,6.27
2019-02-21T01:28:11.453Z,6.27
2019-02-21T01:30:40.811Z,5.90
2019-02-21T01:33:10.169Z,6.13
2019-02-21T01:35:39.514Z,5.70
2019-02-21T01:38:08.844Z,5.87
2019-02-21T01:40:38.201Z,6.10
2019-02-21T01:43:07.530Z,5.80
2019-02-21T01:45:36.881Z,5.53
2019-02-21T01:48:06.197Z,5.83
2019-02-21T01:50:35.516Z,5.90
2019-02-21T01:53:04.940Z,5.70
2019-02-21T01:55:34.316Z,6.07
2019-02-21T01:58:03.776Z,5.97
2019-02-21T02:00:33.220Z,6.20
2019-02-21T02:03:02.567Z,6.13
2019-02-21T02:05:31.915Z,6.27
2019-02-21T02:08:01.287Z,6.17
2019-02-21T02:10:30.808Z,6.43
2019-02-21T02:13:00.157Z,6.50
2019-02-21T02:15:29.518Z,7.00
2019-02-21T02:17:58.842Z,6.90
2019-02-21T02:20:28.149Z,7.70
2019-02-21T02:22:57.498Z,8.30
2019-02-21T02:25:26.819Z,8.83
2019-02-21T02:27:56.180Z,7.67
2019-02-21T02:30:25.513Z,8.47
2019-02-21T02:32:54.849Z,8.53
2019-02-21T02:35:24.205Z,8.40
2019-02-21T02:37:53.586Z,8.73
2019-02-21T02:40:22.931Z,9.00
2019-02-21T02:42:52.274Z,9.33
2019-02-21T02:45:21.622Z,10.17
2019-02-21T02:47:50.960Z,8.17
2019-02-21T02:50:20.299Z,8.80
2019-02-21T02:52:49.624Z,9.50
2019-02-21T02:55:18.988Z,10.17
2019-02-21T02:57:48.326Z,9.83
2019-02-21T03:00:17.685Z,8.77
2019-02-21T03:02:47.017Z,8.47
2019-02-21T03:05:16.387Z,8.63
2019-02-21T03:07:45.755Z,9.50
2019-02-21T03:10:15.260Z,9.43
2019-02-21T03:12:44.612Z,9.30
2019-02-21T03:15:13.974Z,8.93
2019-02-21T03:17:43.304Z,9.60
2019-02-21T03:20:12.697Z,9.73
2019-02-21T03:22:42.036Z,9.60
2019-02-21T03:25:11.599Z,9.33
2019-02-21T03:27:40.935Z,10.20
2019-02-21T03:30:12.423Z,9.27
2019-02-21T03:32:41.823Z,9.53
2019-02-21T03:35:11.234Z,8.50
2019-02-21T03:37:40.620Z,9.60
2019-02-21T03:40:10.197Z,10.40
2019-02-21T03:42:39.642Z,10.30
2019-02-21T03:45:09.790Z,9.50
2019-02-21T03:47:39.139Z,8.67
2019-02-21T03:50:08.854Z,9.30
2019-02-21T03:52:38.178Z,9.97
2019-02-21T03:55:07.936Z,8.83
2019-02-21T03:57:37.503Z,9.30
2019-02-21T04:00:07.202Z,10.13
2019-02-21T04:02:36.697Z,10.07
2019-02-21T04:05:06.249Z,9.47
2019-02-21T04:07:35.621Z,10.10
2019-02-21T04:10:05.196Z,9.87
2019-02-21T04:12:34.517Z,9.33
2019-02-21T04:15:04.767Z,9.20
2019-02-21T04:17:34.157Z,8.67
2019-02-21T04:20:03.504Z,8.93
2019-02-21T04:22:32.942Z,9.07
2019-02-21T04:25:02.298Z,9.03
2019-02-21T04:27:31.681Z,9.87
2019-02-21T04:30:01.041Z,10.00
2019-02-21T04:32:30.396Z,9.03
2019-02-21T04:34:59.758Z,8.73
2019-02-21T04:37:29.089Z,9.10
2019-02-21T04:39:58.468Z,9.23
2019-02-21T04:42:27.812Z,9.00
2019-02-21T04:44:57.170Z,9.30
2019-02-21T04:47:26.500Z,9.67
2019-02-21T04:49:55.852Z,9.17
2019-02-21T04:52:25.160Z,9.40
2019-02-21T04:54:54.510Z,8.90
2019-02-21T04:57:23.875Z,9.83
2019-02-21T04:59:53.274Z,8.93
2019-02-21T05:02:29.017Z,9.40
2019-02-21T05:04:53.703Z,8.53
2019-02-21T05:07:23.052Z,8.97
2019-02-21T05:09:57.901Z,9.10
2019-02-21T05:12:23.523Z,8.90
2019-02-21T05:14:52.886Z,8.57
2019-02-21T05:17:22.196Z,9.20
2019-02-21T05:19:51.538Z,8.30
2019-02-21T05:22:20.935Z,9.27
2019-02-21T05:24:50.280Z,8.00
2019-02-21T05:27:26.263Z,9.07
2019-02-21T05:29:55.624Z,7.93
2019-02-21T05:32:55.785Z,8.27
2019-02-21T05:35:42.234Z,8.50
2019-02-21T05:38:30.522Z,8.37
2019-02-21T05:41:21.846Z,8.03
2019-02-21T05:44:19.202Z,7.60
2019-02-21T05:46:55.890Z,7.53
2019-02-21T05:49:33.962Z,8.30
2019-02-21T05:52:16.681Z,7.67
2019-02-21T05:54:58.437Z,7.03
2019-02-21T05:57:52.546Z,7.83
2019-02-21T06:00:46.925Z,8.47
2019-02-21T06:03:36.138Z,7.83
2019-02-21T06:06:17.229Z,7.17
2019-02-21T06:08:56.810Z,7.93
2019-02-21T06:11:51.246Z,8.10
2019-02-21T06:14:37.010Z,6.90
2019-02-21T06:17:23.417Z,6.73
2019-02-21T06:20:14.730Z,6.60
2019-02-21T06:23:05.843Z,6.73
2019-02-21T06:25:50.842Z,7.07
2019-02-21T06:28:30.841Z,6.47
2019-02-21T06:31:03.184Z,6.00
2019-02-21T06:33:32.545Z,5.83
2019-02-21T06:36:01.885Z,6.87
2019-02-21T06:38:33.464Z,6.70
2019-02-21T06:41:02.351Z,6.57
2019-02-21T06:43:32.293Z,6.63
2019-02-21T06:46:01.624Z,6.40
2019-02-21T06:48:30.963Z,6.43
2019-02-21T06:51:00.327Z,6.20
2019-02-21T06:53:30.048Z,6.17
2019-02-21T06:55:59.390Z,5.87
2019-02-21T06:58:28.743Z,6.67
2019-02-21T07:00:58.089Z,6.47
2019-02-21T07:03:29.087Z,6.17
2019-02-21T07:05:58.454Z,6.30
2019-02-21T07:08:27.807Z,6.40
2019-02-21T07:11:05.942Z,6.33
2019-02-21T07:13:28.236Z,6.87
2019-02-21T07:15:58.536Z,6.60
2019-02-21T07:18:30.310Z,5.73
2019-02-21T07:20:59.637Z,7.10
2019-02-21T07:23:32.682Z,6.17
2019-02-21T07:26:03.166Z,6.30
2019-02-21T07:28:32.500Z,6.70
2019-02-21T07:31:01.885Z,6.60
2019-02-21T07:33:31.194Z,6.23
2019-02-21T07:36:00.555Z,5.97
2019-02-21T07:38:29.902Z,7.30
2019-02-21T07:40:59.303Z,8.83
2019-02-21T07:43:28.663Z,5.67
2019-02-21T07:45:58.051Z,6.47
2019-02-21T07:48:27.387Z,6.33
2019-02-21T07:50:56.743Z,7.30
2019-02-21T07:53:26.069Z,5.77
2019-02-21T07:55:55.906Z,5.97
2019-02-21T07:58:25.257Z,5.70
2019-02-21T08:00:54.590Z,6.67
2019-02-21T08:03:30.293Z,7.13
2019-02-21T08:05:55.059Z,6.23
2019-02-21T08:08:24.413Z,6.27
2019-02-21T08:10:53.799Z,7.30
2019-02-21T08:13:23.179Z,7.10
2019-02-21T08:15:53.207Z,5.93
2019-02-21T08:18:22.594Z,6.80
2019-02-21T08:20:51.981Z,6.20
2019-02-21T08:23:21.374Z,6.60
2019-02-21T08:25:50.778Z,6.60
2019-02-21T08:28:20.158Z,6.37
2019-02-21T08:30:49.529Z,6.73
2019-02-21T08:33:31.666Z,6.40
2019-02-21T08:36:01.015Z,5.80
2019-02-21T08:38:30.383Z,6.67
2019-02-21T08:40:59.734Z,5.73
2019-02-21T08:43:29.130Z,6.20
2019-02-21T08:45:58.503Z,5.40
2019-02-21T08:48:27.843Z,6.03
2019-02-21T08:50:57.221Z,6.53
2019-02-21T08:53:28.140Z,6.57
2019-02-21T08:55:57.712Z,6.57
2019-02-21T08:58:27.091Z,5.20
2019-02-21T09:00:56.430Z,5.63
2019-02-21T09:03:25.748Z,5.67
2019-02-21T09:05:55.118Z,6.20
2019-02-21T09:08:33.141Z,5.70
2019-02-21T09:10:55.558Z,6.17
2019-02-21T09:13:24.928Z,6.37
2019-02-21T09:15:55.965Z,5.80
2019-02-21T09:18:25.393Z,5.67
2019-02-21T09:20:54.756Z,6.17
2019-02-21T09:23:24.091Z,5.90
2019-02-21T09:25:53.608Z,5.60
2019-02-21T09:28:22.890Z,5.47
2019-02-21T09:30:52.256Z,5.63
2019-02-21T09:33:21.786Z,4.50
2019-02-21T09:35:51.220Z,5.47
2019-02-21T09:38:20.551Z,5.00
2019-02-21T09:40:49.961Z,5.37
2019-02-21T09:43:19.248Z,5.47
2019-02-21T09:45:48.630Z,5.40
2019-02-21T09:48:17.989Z,4.97
2019-02-21T09:50:47.317Z,5.17
2019-02-21T09:53:16.699Z,4.80
2019-02-21T09:55:46.032Z,5.47
2019-02-21T09:58:15.384Z,4.83
2019-02-21T10:00:44.741Z,5.03
2019-02-21T10:03:14.085Z,5.30
2019-02-21T10:05:43.413Z,4.60
2019-02-21T10:08:12.785Z,5.40
2019-02-21T10:10:42.140Z,5.00
2019-02-21T10:13:13.309Z,4.83
2019-02-21T10:15:43.040Z,5.00
2019-02-21T10:18:12.413Z,5.60
2019-02-21T10:20:41.770Z,5.20
2019-02-21T10:23:11.147Z,4.97
2019-02-21T10:25:40.476Z,5.37
2019-02-21T10:28:09.854Z,4.80
2019-02-21T10:30:39.198Z,5.20
2019-02-21T10:33:08.597Z,4.83
2019-02-21T10:35:37.936Z,4.67
2019-02-21T10:38:07.260Z,4.90
2019-02-21T10:40:36.643Z,5.00
2019-02-21T10:43:06.006Z,4.67
2019-02-21T10:45:35.433Z,4.23
2019-02-21T10:48:04.794Z,3.90
2019-02-21T10:50:34.111Z,4.70
2019-02-21T10:53:03.478Z,3.97
2019-02-21T10:55:32.828Z,4.70
2019-02-21T10:58:02.154Z,4.70
2019-02-21T11:00:31.591Z,4.40
2019-02-21T11:03:01.063Z,4.97
2019-02-21T11:05:30.433Z,4.43
2019-02-21T11:07:59.782Z,4.30
2019-02-21T11:10:29.300Z,5.07
2019-02-21T11:12:58.653Z,3.77
2019-02-21T11:15:28.032Z,3.90
2019-02-21T11:17:57.367Z,3.73
2019-02-21T11:20:26.736Z,4.07
2019-02-21T11:22:56.083Z,4.03
2019-02-21T11:25:25.458Z,3.87
2019-02-21T11:27:54.921Z,4.07
2019-02-21T11:30:24.299Z,4.40
2019-02-21T11:32:53.617Z,3.83
2019-02-21T11:35:22.972Z,4.40
2019-02-21T11:37:52.349Z,3.97
2019-02-21T11:40:21.698Z,4.63
2019-02-21T11:42:51.048Z,3.87
2019-02-21T11:45:20.813Z,4.57
2019-02-21T11:47:50.193Z,4.40
2019-02-21T11:50:19.669Z,5.03
2019-02-21T11:52:49.030Z,4.13
2019-02-21T11:55:19.848Z,4.27
2019-02-21T11:57:49.230Z,4.23
2019-02-21T12:00:23.192Z,4.17
2019-02-21T12:02:52.538Z,4.30
2019-02-21T12:05:30.568Z,4.27
2019-02-21T12:07:52.998Z,4.10
2019-02-21T12:10:22.544Z,4.70
2019-02-21T12:12:51.901Z,3.60
2019-02-21T12:15:21.264Z,4.30
2019-02-21T12:17:50.673Z,3.70
2019-02-21T12:20:20.044Z,4.83
2019-02-21T12:22:49.485Z,3.97
2019-02-21T12:25:18.897Z,4.03
2019-02-21T12:27:48.238Z,3.90
2019-02-21T12:30:18.277Z,4.03
2019-02-21T12:32:47.776Z,3.70
2019-02-21T12:35:28.828Z,4.10
2019-02-21T12:37:48.638Z,3.83
2019-02-21T12:40:18.746Z,5.00
2019-02-21T12:42:48.115Z,4.40
2019-02-21T12:45:18.767Z,4.73
2019-02-21T12:47:52.759Z,4.23
2019-02-21T12:50:19.301Z,4.33
2019-02-21T12:52:48.671Z,3.90
2019-02-21T12:55:26.976Z,4.00
2019-02-21T12:57:49.088Z,4.33
2019-02-21T13:00:18.986Z,4.17
2019-02-21T13:02:48.312Z,4.00
2019-02-21T13:05:17.796Z,4.60
2019-02-21T13:07:47.153Z,4.07
2019-02-21T13:10:17.671Z,4.10
2019-02-21T13:12:46.978Z,3.90
2019-02-21T13:15:16.346Z,4.60
2019-02-21T13:17:45.737Z,4.27
2019-02-21T13:20:15.538Z,4.50
2019-02-21T13:22:44.886Z,4.47
2019-02-21T13:25:14.239Z,4.30
2019-02-21T13:27:43.604Z,4.10
2019-02-21T13:30:14.668Z,4.27
2019-02-21T13:32:44.018Z,4.13
2019-02-21T13:35:13.561Z,4.23
2019-02-21T13:37:42.895Z,4.37
2019-02-21T13:40:13.402Z,5.13
2019-02-21T13:42:42.871Z,4.53
2019-02-21T13:45:13.019Z,3.80
2019-02-21T13:47:42.388Z,3.83
2019-02-21T13:50:13.788Z,3.87
2019-02-21T13:52:43.111Z,3.60
2019-02-21T13:55:12.455Z,4.07
2019-02-21T13:57:41.769Z,4.00
2019-02-21T14:00:13.842Z,3.60
2019-02-21T14:02:43.178Z,4.20
2019-02-21T14:05:12.525Z,3.90
2019-02-21T14:07:41.853Z,3.60
2019-02-21T14:10:11.529Z,3.80
2019-02-21T14:12:40.961Z,3.43
2019-02-21T14:15:12.916Z,3.50
2019-02-21T14:17:42.321Z,3.57
2019-02-21T14:20:12.227Z,3.80
2019-02-21T14:22:41.565Z,3.97
2019-02-21T14:25:10.995Z,4.20
2019-02-21T14:27:40.347Z,3.50
2019-02-21T14:30:12.215Z,3.00
2019-02-21T14:32:41.561Z,2.67
2019-02-21T14:35:11.726Z,2.40
2019-02-21T14:37:41.064Z,2.60
2019-02-21T14:40:11.087Z,3.67
2019-02-21T14:42:40.430Z,2.97
2019-02-21T14:45:12.490Z,3.00
2019-02-21T14:47:41.971Z,3.10
2019-02-21T14:50:11.483Z,2.93
2019-02-21T14:52:40.842Z,3.00
2019-02-21T14:55:11.027Z,2.60
2019-02-21T14:57:41.408Z,2.83
2019-02-21T15:00:15.322Z,2.60
2019-02-21T15:02:44.659Z,2.50
2019-02-21T15:05:14.178Z,2.60
2019-02-21T15:07:43.502Z,2.60
2019-02-21T15:10:12.975Z,2.50
2019-02-21T15:12:42.315Z,2.70
2019-02-21T15:15:12.973Z,2.73
2019-02-21T15:17:42.358Z,3.00
2019-02-21T15:20:12.751Z,2.67
2019-02-21T15:22:42.078Z,2.80
2019-02-21T15:25:11.414Z,2.33
2019-02-21T15:27:40.768Z,3.07
2019-02-21T15:30:12.577Z,2.93
2019-02-21T15:32:44.679Z,2.90
2019-02-21T15:35:12.953Z,2.60
2019-02-21T15:37:44.831Z,2.83
2019-02-21T15:40:13.548Z,2.93
2019-02-21T15:42:42.857Z,2.60
2019-02-21T15:45:22.439Z,2.93
2019-02-21T15:47:45.277Z,2.77
2019-02-21T15:50:14.636Z,2.93
2019-02-21T15:52:44.323Z,2.90
2019-02-21T15:55:14.516Z,3.20
2019-02-21T15:57:43.875Z,3.00
2019-02-21T16:00:15.103Z,2.77
2019-02-21T16:02:44.515Z,3.10
2019-02-21T16:05:13.948Z,3.17
2019-02-21T16:07:43.293Z,3.07
2019-02-21T16:10:14.646Z,3.20
2019-02-21T16:12:44.503Z,3.40
2019-02-21T16:15:16.452Z,3.63
2019-02-21T16:17:45.634Z,3.70
2019-02-21T16:20:15.235Z,3.43
2019-02-21T16:22:44.726Z,3.10
2019-02-21T16:25:16.244Z,3.23
2019-02-21T16:27:45.561Z,4.10
2019-02-21T16:30:15.404Z,3.60
2019-02-21T16:32:44.760Z,3.47
2019-02-21T16:35:14.158Z,3.43
2019-02-21T16:37:43.594Z,3.47
2019-02-21T16:40:13.511Z,3.47
2019-02-21T16:42:42.870Z,3.40
2019-02-21T16:45:13.128Z,3.57
2019-02-21T16:47:42.461Z,3.30
2019-02-21T16:50:12.596Z,3.87
2019-02-21T16:52:41.946Z,3.27
2019-02-21T16:55:13.439Z,3.47
2019-02-21T16:57:42.833Z,3.50
2019-02-21T17:00:13.381Z,3.87
2019-02-21T17:02:42.746Z,4.10
2019-02-21T17:05:12.304Z,3.50
2019-02-21T17:07:42.318Z,3.50
2019-02-21T17:10:14.268Z,3.83
2019-02-21T17:12:43.620Z,4.13
2019-02-21T17:15:13.364Z,3.90
2019-02-21T17:17:42.698Z,4.17
2019-02-21T17:20:13.361Z,4.27
2019-02-21T17:22:42.721Z,3.93
2019-02-21T17:25:13.498Z,5.10
2019-02-21T17:27:42.878Z,4.43
2019-02-21T17:30:14.691Z,3.97
2019-02-21T17:32:44.009Z,4.70
2019-02-21T17:35:13.575Z,5.53
2019-02-21T17:37:42.897Z,5.80
2019-02-21T17:40:14.776Z,5.03
2019-02-21T17:42:44.126Z,4.60
2019-02-21T17:45:13.514Z,4.80
2019-02-21T17:47:43.095Z,4.77
2019-02-21T17:50:13.570Z,4.63
2019-02-21T17:52:44.236Z,4.13
2019-02-21T17:55:15.558Z,5.40
2019-02-21T17:57:44.933Z,6.53
2019-02-21T18:00:17.525Z,6.70
2019-02-21T18:02:46.963Z,6.70
2019-02-21T18:05:16.336Z,6.20
2019-02-21T18:07:45.687Z,7.30
2019-02-21T18:10:15.145Z,6.73
2019-02-21T18:12:44.500Z,6.67
2019-02-21T18:15:14.189Z,6.20
2019-02-21T18:17:43.599Z,5.93
2019-02-21T18:20:13.382Z,5.17
2019-02-21T18:22:42.711Z,5.33
2019-02-21T18:25:25.022Z,5.93
2019-02-21T18:27:54.340Z,5.10
2019-02-21T18:30:23.695Z,5.43
2019-02-21T18:32:53.246Z,5.43
2019-02-21T18:35:22.565Z,5.60
2019-02-21T18:37:52.006Z,5.60
2019-02-21T18:40:21.661Z,5.07
2019-02-21T18:42:52.041Z,6.27
2019-02-21T18:45:21.414Z,5.73
2019-02-21T18:47:50.770Z,5.23
2019-02-21T18:50:21.325Z,5.43
2019-02-21T18:52:50.695Z,5.77
2019-02-21T18:55:20.038Z,5.53
2019-02-21T18:57:56.889Z,5.60
2019-02-21T19:00:26.348Z,5.90
2019-02-21T19:02:55.775Z,6.07
2019-02-21T19:05:35.295Z,6.13
2019-02-21T19:08:04.176Z,8.07
2019-02-21T19:10:30.187Z,6.17
2019-02-21T19:12:59.534Z,7.23
2019-02-21T19:15:29.328Z,6.60
2019-02-21T19:17:58.673Z,5.90
2019-02-21T19:20:28.071Z,6.10
2019-02-21T19:22:57.455Z,6.57
2019-02-21T19:25:26.798Z,6.97
2019-02-21T19:27:56.190Z,8.07
2019-02-21T19:30:34.431Z,6.57
2019-02-21T19:33:03.766Z,6.30
2019-02-21T19:35:33.112Z,6.43
2019-02-21T19:38:09.824Z,6.40
2019-02-21T19:40:33.886Z,6.40
2019-02-21T19:43:03.226Z,7.07
2019-02-21T19:45:32.675Z,6.33
2019-02-21T19:48:04.083Z,7.10
2019-02-21T19:50:34.151Z,6.77
2019-02-21T19:53:03.408Z,5.67
2019-02-21T19:55:32.911Z,6.13
2019-02-21T19:58:02.257Z,5.63
2019-02-21T20:00:32.716Z,6.07
2019-02-21T20:03:02.073Z,6.20
2019-02-21T20:05:31.447Z,6.33
2019-02-21T20:08:08.221Z,5.90
2019-02-21T20:10:31.860Z,6.40
2019-02-21T20:13:02.483Z,5.80
2019-02-21T20:15:31.794Z,5.93
2019-02-21T20:18:01.211Z,5.67
2019-02-21T20:20:30.582Z,6.27
2019-02-21T20:22:59.942Z,6.67
2019-02-21T20:25:29.286Z,6.20
2019-02-21T20:27:58.631Z,6.47
2019-02-21T20:30:28.034Z,7.13
2019-02-21T20:32:57.379Z,6.43
2019-02-21T20:35:26.719Z,7.93
2019-02-21T20:37:56.168Z,8.13
2019-02-21T20:40:25.560Z,8.17
2019-02-21T20:42:54.914Z,8.33
2019-02-21T20:45:24.900Z,8.00
2019-02-21T20:47:54.178Z,8.70
2019-02-21T20:50:23.514Z,8.50
2019-02-21T20:52:52.883Z,9.10
2019-02-21T20:55:22.216Z,8.80
2019-02-21T20:57:51.576Z,8.77
2019-02-21T21:00:21.010Z,8.90
2019-02-21T21:02:50.353Z,8.70
2019-02-21T21:05:19.668Z,9.53
2019-02-21T21:07:50.285Z,9.73
2019-02-21T21:10:19.731Z,10.03
2019-02-21T21:12:49.092Z,10.80
2019-02-21T21:15:18.410Z,11.63
2019-02-21T21:17:47.753Z,11.40
2019-02-21T21:20:17.532Z,12.33
2019-02-21T21:22:47.129Z,12.77
2019-02-21T21:25:16.515Z,13.50
2019-02-21T21:27:45.865Z,15.70
2019-02-21T21:30:15.732Z,16.00
2019-02-21T21:32:45.119Z,15.37
2019-02-21T21:35:14.662Z,16.07
2019-02-21T21:37:44.011Z,16.10
2019-02-21T21:40:13.906Z,15.27
2019-02-21T21:42:43.249Z,15.57
2019-02-21T21:45:14.966Z,16.43
2019-02-21T21:47:44.317Z,17.33
2019-02-21T21:50:15.019Z,17.70
2019-02-21T21:52:44.387Z,16.37
2019-02-21T21:55:14.518Z,18.07
2019-02-21T21:57:44.175Z,18.23
2019-02-21T22:00:18.049Z,18.50
2019-02-21T22:02:47.549Z,17.73
2019-02-21T22:05:17.008Z,18.90
2019-02-21T22:07:49.071Z,20.17
2019-02-21T22:10:17.557Z,20.10
2019-02-21T22:12:46.908Z,20.77
2019-02-21T22:15:16.300Z,20.10
2019-02-21T22:17:45.654Z,19.40
2019-02-21T22:20:15.037Z,20.00
2019-02-21T22:22:44.416Z,20.50
2019-02-21T22:25:13.992Z,20.57
2019-02-21T22:27:43.372Z,19.40
2019-02-21T22:30:14.447Z,20.33
2019-02-21T22:32:43.819Z,18.90
2019-02-21T22:35:13.138Z,19.70
2019-02-21T22:37:42.494Z,18.90
2019-02-21T22:40:12.718Z,19.13
2019-02-21T22:42:42.069Z,18.47
2019-02-21T22:45:11.660Z,18.50
2019-02-21T22:47:41.133Z,19.70
2019-02-21T22:50:12.556Z,18.77
2019-02-21T22:52:41.923Z,19.00
2019-02-21T22:55:11.468Z,19.47
2019-02-21T22:57:40.776Z,19.60
2019-02-21T23:01:03.298Z,20.27
2019-02-21T23:04:18.214Z,19.30
2019-02-21T23:06:57.137Z,19.47
2019-02-21T23:09:28.108Z,20.80
2019-02-21T23:11:57.707Z,19.70
2019-02-21T23:14:27.053Z,18.83
2019-02-21T23:16:56.375Z,20.03
2019-02-21T23:19:25.727Z,19.50
2019-02-21T23:21:55.110Z,19.50
2019-02-21T23:24:24.484Z,19.23
2019-02-21T23:26:53.842Z,20.97
2019-02-21T23:29:23.170Z,19.43
2019-02-21T23:31:52.510Z,21.47
2019-02-21T23:34:31.990Z,20.40
2019-02-21T23:37:01.351Z,20.67
2019-02-21T23:39:37.797Z,19.20
2019-02-21T23:42:01.761Z,19.30
2019-02-21T23:44:31.080Z,19.23
2019-02-21T23:47:00.513Z,18.20
2019-02-21T23:49:29.870Z,17.83
2019-02-21T23:51:59.182Z,18.20
2019-02-21T23:54:28.494Z,17.53
2019-02-21T23:56:57.836Z,18.50
2019-02-21T23:59:27.171Z,17.53
